createdAt,value
2019-04-16T00:01:07.983Z,98109.17
2019-04-16T00:03:41.408Z,98097.84
2019-04-16T00:06:22.714Z,98097.30
2019-04-16T00:09:02.827Z,98096.42
2019-04-16T00:12:00.444Z,98093.11
2019-04-16T00:14:36.678Z,98096.42
2019-04-16T00:17:08.645Z,98085.10
2019-04-16T00:19:40.607Z,98082.82
2019-04-16T00:22:20.423Z,98087.95
2019-04-16T00:24:54.414Z,98083.98
2019-04-16T00:27:28.786Z,98086.94
2019-04-16T00:30:04.106Z,98088.75
2019-04-16T00:32:34.235Z,98079.99
2019-04-16T00:35:06.214Z,98085.07
2019-04-16T00:37:38.163Z,98083.55
2019-04-16T00:40:10.312Z,98082.92
2019-04-16T00:42:42.287Z,98091.95
2019-04-16T00:45:14.240Z,98087.55
2019-04-16T00:47:47.938Z,98087.46
2019-04-16T00:50:20.065Z,98083.66
2019-04-16T00:52:52.035Z,98084.16
2019-04-16T00:55:23.959Z,98077.72
2019-04-16T00:57:56.053Z,98085.20
2019-04-16T01:00:30.649Z,98081.19
2019-04-16T01:03:02.904Z,98083.81
2019-04-16T01:05:35.292Z,98076.51
2019-04-16T01:08:07.867Z,98079.15
2019-04-16T01:10:39.789Z,98076.77
2019-04-16T01:13:11.729Z,98075.12
2019-04-16T01:15:43.709Z,98076.52
2019-04-16T01:18:15.681Z,98070.34
2019-04-16T01:20:47.654Z,98067.71
2019-04-16T01:23:19.596Z,98072.88
2019-04-16T01:25:55.355Z,98070.41
2019-04-16T01:28:29.374Z,98076.73
2019-04-16T01:31:19.340Z,98078.01
2019-04-16T01:34:01.679Z,98073.44
2019-04-16T01:36:45.693Z,98075.34
2019-04-16T01:39:19.021Z,98072.80
2019-04-16T01:41:53.265Z,98067.38
2019-04-16T01:44:28.529Z,98071.93
2019-04-16T01:47:03.337Z,98070.31
2019-04-16T01:49:32.542Z,98061.55
2019-04-16T01:52:04.472Z,98064.23
2019-04-16T01:54:36.418Z,98069.16
2019-04-16T01:57:08.349Z,98069.68
2019-04-16T01:59:40.293Z,98064.75
2019-04-16T02:02:15.568Z,98068.66
2019-04-16T02:04:48.509Z,98068.20
2019-04-16T02:07:19.931Z,98067.43
2019-04-16T02:09:51.887Z,98069.19
2019-04-16T02:12:23.848Z,98067.92
2019-04-16T02:14:55.792Z,98061.23
2019-04-16T02:17:27.814Z,98062.49
2019-04-16T02:20:02.098Z,98063.38
2019-04-16T02:22:33.622Z,98062.88
2019-04-16T02:25:05.899Z,98064.91
2019-04-16T02:27:37.828Z,98068.33
2019-04-16T02:30:09.912Z,98059.84
2019-04-16T02:32:41.856Z,98062.88
2019-04-16T02:35:13.837Z,98062.63
2019-04-16T02:37:45.774Z,98059.84
2019-04-16T02:40:18.854Z,98052.50
2019-04-16T02:42:51.092Z,98053.89
2019-04-16T02:45:24.355Z,98054.03
2019-04-16T02:47:56.505Z,98058.70
2019-04-16T02:50:48.087Z,98056.30
2019-04-16T02:53:39.999Z,98061.50
2019-04-16T02:56:51.997Z,98057.06
2019-04-16T02:59:29.070Z,98055.05
2019-04-16T03:02:22.665Z,98054.38
2019-04-16T03:05:00.210Z,98047.95
2019-04-16T03:07:33.380Z,98053.00
2019-04-16T03:10:05.424Z,98043.88
2019-04-16T03:12:37.346Z,98045.88
2019-04-16T03:15:09.801Z,98046.16
2019-04-16T03:17:44.329Z,98044.13
2019-04-16T03:20:16.723Z,98039.45
2019-04-16T03:22:48.658Z,98042.10
2019-04-16T03:25:20.615Z,98036.67
2019-04-16T03:27:54.448Z,98035.50
2019-04-16T03:30:26.414Z,98030.72
2019-04-16T03:32:58.347Z,98034.22
2019-04-16T03:35:30.317Z,98037.02
2019-04-16T03:38:04.958Z,98034.00
2019-04-16T03:40:36.131Z,98040.34
2019-04-16T03:43:08.064Z,98032.84
2019-04-16T03:45:40.531Z,98032.49
2019-04-16T03:48:13.318Z,98030.20
2019-04-16T03:50:45.347Z,98031.97
2019-04-16T03:53:18.232Z,98035.76
2019-04-16T03:55:50.360Z,98035.27
2019-04-16T03:58:22.326Z,98032.75
2019-04-16T04:00:54.289Z,98033.64
2019-04-16T04:03:26.947Z,98031.22
2019-04-16T04:05:59.017Z,98030.46
2019-04-16T04:08:30.983Z,98028.30
2019-04-16T04:11:02.995Z,98030.45
2019-04-16T04:13:34.937Z,98025.38
2019-04-16T04:16:07.104Z,98026.91
2019-04-16T04:18:42.903Z,98036.27
2019-04-16T04:21:12.912Z,98041.19
2019-04-16T04:23:44.853Z,98051.03
2019-04-16T04:26:16.842Z,98056.94
2019-04-16T04:28:51.750Z,98063.51
2019-04-16T04:31:22.644Z,98064.03
2019-04-16T04:33:54.614Z,98066.17
2019-04-16T04:36:28.168Z,98066.70
2019-04-16T04:39:00.444Z,98071.25
2019-04-16T04:41:32.375Z,98078.95
2019-04-16T04:44:05.364Z,98080.94
2019-04-16T04:46:37.672Z,98081.97
2019-04-16T04:49:09.639Z,98087.77
2019-04-16T04:51:43.410Z,98093.31
2019-04-16T04:54:15.476Z,98100.05
2019-04-16T04:56:47.415Z,98093.59
2019-04-16T04:59:19.362Z,98103.60
2019-04-16T05:01:51.301Z,98102.42
2019-04-16T05:04:45.930Z,98108.05
2019-04-16T05:07:18.517Z,98113.31
2019-04-16T05:09:50.475Z,98112.33
2019-04-16T05:12:22.603Z,98121.69
2019-04-16T05:14:57.894Z,98115.38
2019-04-16T05:17:29.629Z,98123.00
2019-04-16T05:20:01.656Z,98119.48
2019-04-16T05:22:33.629Z,98122.90
2019-04-16T05:25:05.595Z,98125.63
2019-04-16T05:27:41.219Z,98127.47
2019-04-16T05:30:11.644Z,98126.58
2019-04-16T05:32:43.600Z,98127.67
2019-04-16T05:35:15.589Z,98125.53
2019-04-16T05:37:48.618Z,98122.79
2019-04-16T05:40:21.429Z,98122.38
2019-04-16T05:42:55.811Z,98133.05
2019-04-16T05:45:27.245Z,98131.56
2019-04-16T05:47:59.299Z,98130.02
2019-04-16T05:50:31.275Z,98125.13
2019-04-16T05:53:05.496Z,98122.81
2019-04-16T05:55:51.415Z,98124.78
2019-04-16T05:58:23.547Z,98120.34
2019-04-16T06:01:16.641Z,98116.64
2019-04-16T06:03:52.859Z,98117.80
2019-04-16T06:06:22.504Z,98109.83
2019-04-16T06:08:56.142Z,98117.62
2019-04-16T06:11:35.547Z,98121.22
2019-04-16T06:14:34.075Z,98129.50
2019-04-16T06:17:32.161Z,98123.02
2019-04-16T06:20:13.247Z,98119.91
2019-04-16T06:22:55.070Z,98118.74
2019-04-16T06:25:52.161Z,98118.55
2019-04-16T06:28:55.038Z,98115.27
2019-04-16T06:31:36.208Z,98121.86
2019-04-16T06:34:30.255Z,98110.73
2019-04-16T06:37:20.403Z,98104.88
2019-04-16T06:40:31.759Z,98110.13
2019-04-16T06:43:07.925Z,98108.27
2019-04-16T06:45:54.504Z,98113.56
2019-04-16T06:48:30.546Z,98114.84
2019-04-16T06:51:25.147Z,98114.42
2019-04-16T06:54:34.802Z,98110.19
2019-04-16T06:57:26.931Z,98114.60
2019-04-16T07:00:18.410Z,98118.20
2019-04-16T07:03:10.033Z,98127.95
2019-04-16T07:06:04.808Z,98130.94
2019-04-16T07:08:56.524Z,98125.66
2019-04-16T07:11:28.885Z,98127.03
2019-04-16T07:14:00.878Z,98125.25
2019-04-16T07:16:32.844Z,98119.01
2019-04-16T07:19:10.174Z,98115.09
2019-04-16T07:21:40.446Z,98123.14
2019-04-16T07:24:12.502Z,98123.79
2019-04-16T07:26:47.865Z,98114.22
2019-04-16T07:29:41.448Z,98116.32
2019-04-16T07:32:30.029Z,98115.11
2019-04-16T07:35:27.121Z,98114.97
2019-04-16T07:38:18.125Z,98105.88
2019-04-16T07:41:11.872Z,98102.63
2019-04-16T07:44:11.379Z,98106.78
2019-04-16T07:47:11.826Z,98103.68
2019-04-16T07:50:00.022Z,98110.33
2019-04-16T07:52:47.993Z,98094.74
2019-04-16T07:55:39.557Z,98096.30
2019-04-16T07:58:11.524Z,98083.39
2019-04-16T08:00:43.520Z,98097.05
2019-04-16T08:03:15.487Z,98094.59
2019-04-16T08:05:47.465Z,98097.82
2019-04-16T08:08:24.314Z,98101.26
2019-04-16T08:10:56.103Z,98089.56
2019-04-16T08:13:33.276Z,98093.20
2019-04-16T08:16:03.102Z,98088.03
2019-04-16T08:18:37.775Z,98085.35
2019-04-16T08:21:12.208Z,98090.92
2019-04-16T08:23:51.381Z,98082.19
2019-04-16T08:26:20.450Z,98080.25
2019-04-16T08:28:52.396Z,98083.67
2019-04-16T08:31:26.942Z,98080.59
2019-04-16T08:33:58.914Z,98075.42
2019-04-16T08:36:30.903Z,98082.54
2019-04-16T08:39:06.461Z,98078.67
2019-04-16T08:41:38.091Z,98088.51
2019-04-16T08:44:10.766Z,98098.72
2019-04-16T08:46:42.913Z,98092.16
2019-04-16T08:49:15.380Z,98087.83
2019-04-16T08:51:47.467Z,98090.77
2019-04-16T08:54:19.426Z,98081.44
2019-04-16T08:56:51.409Z,98085.06
2019-04-16T08:59:23.398Z,98084.95
2019-04-16T09:01:55.391Z,98084.20
2019-04-16T09:04:27.369Z,98075.31
2019-04-16T09:07:10.472Z,98078.02
2019-04-16T09:09:57.041Z,98071.83
2019-04-16T09:12:27.596Z,98072.24
2019-04-16T09:14:59.631Z,98072.72
2019-04-16T09:17:38.141Z,98075.60
2019-04-16T09:20:15.314Z,98086.08
2019-04-16T09:22:49.421Z,98078.67
2019-04-16T09:25:42.565Z,98084.78
2019-04-16T09:28:34.189Z,98082.25
2019-04-16T09:31:31.259Z,98083.94
2019-04-16T09:34:30.851Z,98081.32
2019-04-16T09:37:21.212Z,98086.89
2019-04-16T09:40:31.156Z,98080.90
2019-04-16T09:43:16.176Z,98076.41
2019-04-16T09:45:39.753Z,98071.96
2019-04-16T09:48:11.751Z,98069.02
2019-04-16T09:50:47.521Z,98068.33
2019-04-16T09:53:17.641Z,98066.56
2019-04-16T09:55:50.605Z,98065.42
2019-04-16T09:58:23.757Z,98067.06
2019-04-16T10:01:04.714Z,98065.85
2019-04-16T10:03:39.051Z,98061.20
2019-04-16T10:06:11.155Z,98066.30
2019-04-16T10:08:45.111Z,98066.07
2019-04-16T10:11:19.262Z,98062.12
2019-04-16T10:13:51.024Z,98059.09
2019-04-16T10:16:24.961Z,98057.81
2019-04-16T10:18:56.928Z,98051.11
2019-04-16T10:21:29.335Z,98052.22
2019-04-16T10:24:39.551Z,98050.98
2019-04-16T10:27:16.810Z,98048.27
2019-04-16T10:29:48.834Z,98049.33
2019-04-16T10:32:20.811Z,98045.33
2019-04-16T10:34:52.806Z,98045.69
2019-04-16T10:37:24.766Z,98043.47
2019-04-16T10:40:10.816Z,98042.22
2019-04-16T10:43:05.054Z,98040.61
2019-04-16T10:46:02.533Z,98040.13
2019-04-16T10:49:06.281Z,98035.44
2019-04-16T10:51:45.072Z,98033.53
2019-04-16T10:54:39.208Z,98028.19
2019-04-16T10:57:27.246Z,98030.24
2019-04-16T11:00:17.722Z,98030.84
2019-04-16T11:02:53.849Z,98026.06
2019-04-16T11:06:03.154Z,98018.17
2019-04-16T11:08:35.110Z,98024.74
2019-04-16T11:11:07.091Z,98019.06
2019-04-16T11:13:41.763Z,98016.27
2019-04-16T11:16:15.923Z,98016.89
2019-04-16T11:18:47.946Z,98014.98
2019-04-16T11:21:19.930Z,98015.66
2019-04-16T11:23:51.955Z,98017.19
2019-04-16T11:26:24.020Z,98012.92
2019-04-16T11:28:56.035Z,98009.22
2019-04-16T11:31:28.153Z,98011.89
2019-04-16T11:34:00.184Z,98011.44
2019-04-16T11:36:32.169Z,98008.36
2019-04-16T11:39:06.276Z,98005.14
2019-04-16T11:41:38.243Z,98007.51
2019-04-16T11:44:15.572Z,98004.72
2019-04-16T11:46:44.145Z,98008.92
2019-04-16T11:49:16.357Z,98008.11
2019-04-16T11:51:48.512Z,98013.36
2019-04-16T11:54:20.494Z,98002.05
2019-04-16T11:56:55.267Z,97998.93
2019-04-16T11:59:26.428Z,98000.60
2019-04-16T12:02:17.794Z,98000.12
2019-04-16T12:04:59.602Z,97998.04
2019-04-16T12:07:53.975Z,98001.43
2019-04-16T12:10:34.500Z,97998.39
2019-04-16T12:13:21.781Z,97993.14
2019-04-16T12:16:13.318Z,97995.66
2019-04-16T12:19:04.075Z,97994.44
2019-04-16T12:21:47.355Z,97986.41
2019-04-16T12:24:48.041Z,97991.22
2019-04-16T12:27:38.266Z,97989.64
2019-04-16T12:30:28.391Z,97987.53
2019-04-16T12:33:29.265Z,97985.50
2019-04-16T12:36:20.879Z,97983.89
2019-04-16T12:39:07.035Z,97986.44
2019-04-16T12:41:54.058Z,97976.78
2019-04-16T12:44:54.816Z,97980.00
2019-04-16T12:47:42.881Z,97974.52
2019-04-16T12:50:40.815Z,97972.28
2019-04-16T12:53:31.013Z,97972.41
2019-04-16T12:56:20.366Z,97968.38
2019-04-16T12:58:59.952Z,97970.35
2019-04-16T13:01:51.530Z,97975.75
2019-04-16T13:04:45.711Z,97971.15
2019-04-16T13:07:39.015Z,97975.61
2019-04-16T13:10:32.684Z,97976.51
2019-04-16T13:13:23.133Z,97970.35
2019-04-16T13:16:03.548Z,97971.58
2019-04-16T13:19:01.512Z,97973.87
2019-04-16T13:21:38.066Z,97985.66
2019-04-16T13:24:16.905Z,97983.17
2019-04-16T13:27:11.440Z,97981.59
2019-04-16T13:29:43.506Z,97981.48
2019-04-16T13:32:15.505Z,97978.84
2019-04-16T13:34:47.484Z,97976.03
2019-04-16T13:37:19.447Z,97978.78
2019-04-16T13:40:04.460Z,97974.30
2019-04-16T13:42:36.641Z,97972.33
2019-04-16T13:45:36.866Z,97977.16
2019-04-16T13:48:27.595Z,97973.58
2019-04-16T13:51:15.138Z,97977.14
2019-04-16T13:53:52.615Z,97985.48
2019-04-16T13:56:31.065Z,97986.05
2019-04-16T13:59:22.589Z,97986.57
2019-04-16T14:02:11.999Z,97982.02
2019-04-16T14:04:45.747Z,97984.27
2019-04-16T14:07:17.708Z,97987.81
2019-04-16T14:09:49.713Z,97987.77
2019-04-16T14:12:28.038Z,97982.73
2019-04-16T14:14:55.625Z,97990.63
2019-04-16T14:17:28.235Z,97988.69
2019-04-16T14:20:00.223Z,97991.13
2019-04-16T14:22:32.163Z,97984.52
2019-04-16T14:25:06.053Z,97992.91
2019-04-16T14:27:38.020Z,97996.42
2019-04-16T14:30:14.427Z,97996.37
2019-04-16T14:32:46.443Z,98003.83
2019-04-16T14:35:32.892Z,98006.77
2019-04-16T14:37:55.614Z,98013.94
2019-04-16T14:40:27.867Z,98012.13
2019-04-16T14:42:59.919Z,98012.70
2019-04-16T14:45:57.753Z,98017.68
2019-04-16T14:48:18.325Z,98015.83
2019-04-16T14:50:50.330Z,98020.52
2019-04-16T14:53:37.640Z,98019.41
2019-04-16T14:56:17.422Z,98015.30
2019-04-16T14:59:01.251Z,98027.60
2019-04-16T15:02:04.809Z,98035.27
2019-04-16T15:05:02.415Z,98044.92
2019-04-16T15:07:48.218Z,98050.91
2019-04-16T15:10:42.567Z,98055.83
2019-04-16T15:13:34.166Z,98058.25
2019-04-16T15:16:24.552Z,98064.11
2019-04-16T15:19:15.128Z,98065.77
2019-04-16T15:22:05.783Z,98073.50
2019-04-16T15:24:52.311Z,98072.66
2019-04-16T15:27:49.416Z,98077.74
2019-04-16T15:31:00.742Z,98079.19
2019-04-16T15:33:40.515Z,98076.12
2019-04-16T15:36:35.426Z,98086.02
2019-04-16T15:39:16.585Z,98081.41
2019-04-16T15:42:06.758Z,98081.25
2019-04-16T15:45:04.251Z,98083.94
2019-04-16T15:47:59.232Z,98080.58
2019-04-16T15:50:37.525Z,98085.70
2019-04-16T15:53:34.999Z,98089.16
2019-04-16T15:56:29.621Z,98081.53
2019-04-16T15:59:21.222Z,98089.34
2019-04-16T16:02:22.159Z,98083.27
2019-04-16T16:05:05.506Z,98086.34
2019-04-16T16:07:45.583Z,98089.13
2019-04-16T16:10:19.800Z,98087.97
2019-04-16T16:12:53.771Z,98087.09
2019-04-16T16:15:25.769Z,98097.44
2019-04-16T16:17:57.816Z,98093.11
2019-04-16T16:20:30.298Z,98095.39
2019-04-16T16:23:02.362Z,98099.16
2019-04-16T16:25:34.592Z,98100.84
2019-04-16T16:28:06.685Z,98108.28
2019-04-16T16:30:38.735Z,98114.12
2019-04-16T16:33:10.779Z,98117.09
2019-04-16T16:35:57.055Z,98117.36
2019-04-16T16:38:16.710Z,98119.28
2019-04-16T16:40:49.701Z,98114.81
2019-04-16T16:43:22.549Z,98117.29
2019-04-16T16:46:14.142Z,98122.34
2019-04-16T16:48:46.862Z,98126.19
2019-04-16T16:51:18.860Z,98128.66
2019-04-16T16:53:56.685Z,98132.42
2019-04-16T16:56:48.112Z,98135.24
2019-04-16T16:59:27.134Z,98128.30
2019-04-16T17:02:20.729Z,98126.44
2019-04-16T17:04:53.215Z,98142.28
2019-04-16T17:07:25.247Z,98138.59
2019-04-16T17:09:57.297Z,98135.83
2019-04-16T17:12:30.428Z,98144.33
2019-04-16T17:15:02.596Z,98138.37
2019-04-16T17:17:34.625Z,98136.55
2019-04-16T17:20:08.844Z,98142.52
2019-04-16T17:22:41.085Z,98143.31
2019-04-16T17:25:13.286Z,98150.11
2019-04-16T17:27:51.570Z,98145.22
2019-04-16T17:30:19.268Z,98145.55
2019-04-16T17:32:51.267Z,98150.38
2019-04-16T17:35:23.330Z,98150.60
2019-04-16T17:37:55.407Z,98153.48
2019-04-16T17:40:38.362Z,98149.55
2019-04-16T17:43:16.152Z,98157.58
2019-04-16T17:46:07.801Z,98162.42
2019-04-16T17:48:57.594Z,98155.49
2019-04-16T17:51:40.600Z,98161.80
2019-04-16T17:54:41.034Z,98162.76
2019-04-16T17:57:35.407Z,98164.87
2019-04-16T18:00:40.867Z,98172.98
2019-04-16T18:03:25.738Z,98169.80
2019-04-16T18:06:19.821Z,98176.48
2019-04-16T18:09:17.219Z,98175.48
2019-04-16T18:12:07.419Z,98186.75
2019-04-16T18:15:00.883Z,98198.89
2019-04-16T18:18:01.338Z,98193.52
2019-04-16T18:20:38.807Z,98206.16
2019-04-16T18:23:29.670Z,98208.94
2019-04-16T18:26:36.616Z,98211.52
2019-04-16T18:29:16.379Z,98218.09
2019-04-16T18:32:03.057Z,98226.02
2019-04-16T18:34:54.175Z,98229.75
2019-04-16T18:38:03.003Z,98232.66
2019-04-16T18:40:45.532Z,98233.81
2019-04-16T18:43:35.808Z,98242.70
2019-04-16T18:46:27.077Z,98243.06
2019-04-16T18:49:06.932Z,98247.53
2019-04-16T18:51:38.997Z,98246.11
2019-04-16T18:54:11.029Z,98253.97
2019-04-16T18:56:43.063Z,98256.24
2019-04-16T18:59:15.119Z,98263.04
2019-04-16T19:01:49.500Z,98258.22
2019-04-16T19:04:21.594Z,98268.30
2019-04-16T19:06:53.698Z,98276.57
2019-04-16T19:09:25.748Z,98279.01
2019-04-16T19:11:57.813Z,98282.41
2019-04-16T19:14:29.977Z,98280.26
2019-04-16T19:17:04.114Z,98286.96
2019-04-16T19:19:36.191Z,98291.18
2019-04-16T19:22:08.383Z,98287.78
2019-04-16T19:24:40.618Z,98292.30
2019-04-16T19:27:12.656Z,98305.02
2019-04-16T19:29:46.309Z,98307.91
2019-04-16T19:32:18.365Z,98304.55
2019-04-16T19:34:50.450Z,98304.45
2019-04-16T19:37:24.783Z,98309.92
2019-04-16T19:39:56.851Z,98312.28
2019-04-16T19:42:29.674Z,98309.89
2019-04-16T19:45:02.441Z,98302.44
2019-04-16T19:47:37.615Z,98301.01
2019-04-16T19:50:09.845Z,98306.94
2019-04-16T19:52:45.488Z,98311.94
2019-04-16T19:55:16.039Z,98317.16
2019-04-16T19:57:48.476Z,98315.23
2019-04-16T20:00:22.953Z,98312.45
2019-04-16T20:02:58.822Z,98314.78
2019-04-16T20:05:31.185Z,98315.13
2019-04-16T20:08:03.362Z,98317.14
2019-04-16T20:10:35.422Z,98313.30
2019-04-16T20:13:07.444Z,98313.38
2019-04-16T20:15:43.458Z,98314.28
2019-04-16T20:18:14.706Z,98308.73
2019-04-16T20:20:47.078Z,98297.33
2019-04-16T20:23:24.757Z,98302.88
2019-04-16T20:26:00.100Z,98307.37
2019-04-16T20:28:30.712Z,98305.55
2019-04-16T20:31:04.968Z,98304.48
2019-04-16T20:33:38.066Z,98307.63
2019-04-16T20:36:10.169Z,98308.34
2019-04-16T20:38:42.192Z,98306.43
2019-04-16T20:41:18.146Z,98304.84
2019-04-16T20:43:48.242Z,98308.60
2019-04-16T20:46:20.309Z,98313.73
2019-04-16T20:49:06.517Z,98310.30
2019-04-16T20:51:27.259Z,98317.85
2019-04-16T20:53:59.435Z,98313.84
2019-04-16T20:56:31.529Z,98323.09
2019-04-16T20:59:05.228Z,98326.69
2019-04-16T21:01:40.112Z,98324.78
2019-04-16T21:04:12.123Z,98329.24
2019-04-16T21:06:44.204Z,98334.31
2019-04-16T21:09:16.236Z,98333.89
2019-04-16T21:11:48.366Z,98332.44
2019-04-16T21:14:21.833Z,98333.70
2019-04-16T21:16:54.590Z,98332.53
2019-04-16T21:19:46.671Z,98333.83
2019-04-16T21:22:19.749Z,98339.88
2019-04-16T21:24:51.783Z,98336.31
2019-04-16T21:27:23.788Z,98344.62
2019-04-16T21:29:55.760Z,98345.80
2019-04-16T21:32:45.600Z,98353.16
2019-04-16T21:35:23.433Z,98348.39
2019-04-16T21:38:21.130Z,98348.22
2019-04-16T21:40:56.444Z,98346.59
2019-04-16T21:43:27.037Z,98347.77
2019-04-16T21:46:01.762Z,98348.75
2019-04-16T21:48:35.304Z,98349.11
2019-04-16T21:51:07.712Z,98357.84
2019-04-16T21:53:39.842Z,98355.27
2019-04-16T21:56:11.847Z,98355.98
2019-04-16T21:58:46.619Z,98353.38
2019-04-16T22:01:46.386Z,98352.42
2019-04-16T22:04:18.382Z,98354.30
2019-04-16T22:06:52.546Z,98358.08
2019-04-16T22:09:24.286Z,98361.64
2019-04-16T22:11:56.540Z,98368.45
2019-04-16T22:14:28.943Z,98361.23
2019-04-16T22:17:04.196Z,98361.42
2019-04-16T22:19:34.843Z,98356.87
2019-04-16T22:22:07.530Z,98360.12
2019-04-16T22:24:39.544Z,98359.66
2019-04-16T22:27:11.612Z,98360.19
2019-04-16T22:29:47.230Z,98368.56
2019-04-16T22:32:17.504Z,98373.12
2019-04-16T22:34:49.535Z,98375.50
2019-04-16T22:37:21.502Z,98373.12
2019-04-16T22:40:13.289Z,98380.03
2019-04-16T22:43:07.037Z,98377.77
2019-04-16T22:45:42.261Z,98382.89
2019-04-16T22:48:14.254Z,98386.09
2019-04-16T22:50:46.261Z,98391.14
2019-04-16T22:53:19.438Z,98394.80
2019-04-16T22:55:56.336Z,98393.70
2019-04-16T22:58:27.563Z,98398.46
2019-04-16T23:01:04.199Z,98403.44
2019-04-16T23:03:36.301Z,98408.37
2019-04-16T23:06:08.418Z,98405.38
2019-04-16T23:08:43.341Z,98407.17
2019-04-16T23:11:14.419Z,98405.89
2019-04-16T23:13:46.396Z,98402.02
2019-04-16T23:16:18.373Z,98402.02
2019-04-16T23:18:50.372Z,98406.84
2019-04-16T23:21:22.346Z,98409.30
2019-04-16T23:23:54.300Z,98411.63
2019-04-16T23:26:26.271Z,98419.32
2019-04-16T23:28:58.626Z,98419.39
2019-04-16T23:31:30.732Z,98420.78
2019-04-16T23:36:36.115Z,98426.39
2019-04-16T23:39:08.060Z,98422.73
2019-04-16T23:41:40.028Z,98433.92
2019-04-16T23:44:28.845Z,98427.52
2019-04-16T23:47:29.493Z,98435.20
2019-04-16T23:50:21.409Z,98434.14
2019-04-16T23:52:58.941Z,98434.14
2019-04-16T23:55:49.985Z,98436.30
2019-04-16T23:58:29.335Z,98432.06
